x

Ilm3 - 27 Miles Se Of Wrightsville Beach, Nc (41037) Weather Station

9:00 - Wed 22nd Oct 2014 All times are EDT. -4 hours from GMT.

  • Wind
    20mph, 25mph gusts
  • Sea Temp 75°f
  • Luft Temp 56°f
  • Sea Pressure 1014mb
  • Ilm3 - 27 Miles Se Of Wrightsville Beach, Nc
  • Ilm3 - 27 Miles Se Of Wrightsville Beach, Nc

More Historic Weather Station data

Upgrade to MSW Pro to gain access to the past 30 days of data for over 8000 Wavebouys and Weather Stations around the globe.

Join Pro

Comparision Forecast

View Surf forecast
   
Mi 10/22 9:00 20 25 mph 1014mb 75f 56f
8:00 22 27 mph 1013.4mb 75f 57f
7:00 22 25 mph 1012.1mb 75f 57f
6:00 22 27 mph 1012mb 75f 58f
5:00 25 29 mph 1010.7mb 75f 60f
4:00 27 31 mph 1011.1mb 75f 61f
3:00 22 27 mph 1010.3mb 75f 63f
2:00 25 29 mph 1010.8mb 76f 65f
1:00 13 18 mph 1010.7mb 76f 71f
12:00 16 18 mph 1011mb 76f 71f
Di 10/21 11:00 16 20 mph 1011.5mb 76f 70f
10:00 20 22 mph 1011.8mb 76f 70f
9:00 18 20 mph 1011.6mb 76f 70f
8:00 16 18 mph 1011.3mb 76f 70f
7:00 16 18 mph 1011mb 76f 69f
6:00 16 18 mph 1010.6mb 76f 69f
5:00 16 20 mph 1010.6mb 76f 70f
4:00 13 16 mph 1010.4mb 76f 70f
3:00 9 11 mph 1010.8mb 76f 69f
2:00 9 11 mph 1011.8mb 76f 68f
1:00 9
mph
1012.7mb 76f 68f
12:00 11
mph
1013.2mb 76f 68f
11:00 9 13 mph 1013.3mb 76f 68f
10:00 9 11 mph 1013.9mb 76f 67f
9:00 9 11 mph 1013.8mb 76f 68f
8:00 11 13 mph 1013.7mb 76f 68f
7:00 9 11 mph 1013.6mb 76f 68f
6:00 11 13 mph 1013.6mb 76f 69f
5:00 11 16 mph 1013.3mb 76f 69f
4:00 16 20 mph 1013.4mb 76f 69f
3:00 20 22 mph 1013.4mb 76f 69f
2:00 13 16 mph 1014mb 76f 69f
1:00 13 16 mph 1014.6mb - 70f
12:00 11 13 mph 1014.9mb - 70f
Mo 10/20 11:00 11 13 mph 1015.4mb 76f 72f
10:00 18 22 mph 1016mb 76f 72f
9:00 9 11 mph 1015.9mb 76f 71f
8:00 11 13 mph 1016mb 76f 70f
7:00 13 16 mph 1015.7mb 76f 70f
6:00 13 16 mph 1015.8mb 76f 69f
5:00 11 13 mph 1016.2mb 77f 68f
4:00 9
mph
1016.9mb 77f 68f
3:00 4 7 mph 1017.6mb 77f 67f
2:00 4 7 mph 1018.5mb 77f 67f
1:00 2 4 mph 1019.6mb 77f 66f
12:00 2 4 mph 1020.7mb 76f 67f
11:00 4 7 mph 1021.1mb 76f 66f
10:00 4 7 mph 1021.3mb 76f 65f
9:00 7
mph
1021.3mb 76f 65f
8:00 7 9 mph 1020.8mb 76f 64f
7:00 4 7 mph 1020.7mb 76f 63f
6:00 9 11 mph 1020.4mb 76f 62f
5:00 11 13 mph 1020.3mb 76f 62f
4:00 7 9 mph 1020.4mb 76f 62f
3:00 9 11 mph 1020.2mb 76f 62f
2:00 4 7 mph 1020.2mb 76f 62f
1:00 7 9 mph 1020.2mb 76f 62f
12:00 11 16 mph 1020.3mb 76f 62f
So 10/19 11:00 11 13 mph 1020.4mb 76f 62f
10:00 11 16 mph 1019.9mb 76f 62f
9:00 16 18 mph 1019.3mb 76f 63f
8:00 9 13 mph 1019.1mb 76f 63f
7:00 16 18 mph 1018.2mb 76f 63f
6:00 13 16 mph 1017.8mb 76f 63f
5:00 13 16 mph 1017.3mb 76f 63f
4:00 16 18 mph 1017.3mb 76f 62f
3:00 16 18 mph 1017.3mb 76f 61f
2:00 18 22 mph 1017.3mb 76f 60f
1:00 16 20 mph 1017.8mb 76f 60f
12:00 13 18 mph 1018.4mb 76f 60f
11:00 18 22 mph 1017.8mb 76f 60f
10:00 22 29 mph 1018mb 76f 60f
9:00 22 27 mph 1017.5mb 76f 59f
8:00 22 27 mph 1015.9mb 76f 59f
7:00 22 25 mph 1015mb 76f 59f
6:00 25 29 mph 1013.7mb 76f 61f
5:00 22 27 mph 1013.1mb 76f 62f
4:00 29 34 mph 1012.3mb 76f 62f
3:00 22 27 mph 1012.8mb 76f 64f
2:00 20 22 mph 1011.8mb 76f 65f
1:00 22 29 mph 1010.9mb 76f 65f
12:00 25 29 mph 1010.7mb 76f 67f
Sa 10/18 11:00 25 29 mph 1010.3mb 76f 68f
10:00 25 29 mph 1009.9mb 76f 69f
9:00 13 16 mph 1009.4mb 76f 72f
8:00 18 20 mph 1009mb 76f 72f
7:00 18 22 mph 1008.4mb 76f 72f
6:00 22 25 mph 1007mb 76f 72f
5:00 18 20 mph 1007.2mb 77f 71f
4:00 16 20 mph 1007mb 77f 70f
3:00 16 20 mph 1007.4mb 77f 70f